Terminal Aerodrome Forecast
Issued by NWS

Home | Current Version | Previous Version | Text Only | Print | Product List | Glossary On
Versions: 1 2 3 4 5 6 7 8 9 10 11 12 13 14 15 16 17 18 19
000
FTUS43 KSGF 292300
TAFJLN
TAF
KJLN 292320Z 3000/3024 21011KT P6SM VCSH SCT060
     FM300300 24008KT P6SM SCT200
     FM301000 20006KT P6SM SCT040 BKN100 PROB30 3010/3016 -TSRA
      SCT040 BKN050CB=

USA.gov is the U.S. government's official web portal to all federal, state and local government web resources and services.